IE-0038 weather

O'Loughlin Airstrip
County Kildare, Ireland

Public forecast

Using degrees Celsius for public forecast. Weather courtesy of forecast.io.

Closest aviation weather report (METAR) to O'Loughlin Airstrip

Closest report is Casement Air Base, 21.8 nm (40.4 km) ENE. Retrieved 2020/07/11 14:00 UTC (7 minutes ago):

EIME 111400Z 26005KT 210V320 9999 FEW028 BKN050 16/09 Q1028

Closest aviation forecast (TAF) to O'Loughlin Airstrip

Closest forecast is Dublin Airport, 30.7 nm (56.9 km) ENE. Retrieved 2020/07/11 12:14 UTC (2 hours ago):

TAF EIDW 111100Z 1112/1212 26008KT 9999 FEW020 BKN040 BECMG 1116/1118 15008KT BECMG 1122/1124 24006KT